GLO1378 SBRJ-SAEZ
Flight info
| Callsign | GLO1378 |
|---|---|
| Flight time | 2h 56m |
| Altitude | 38000 |
| Route | VAMIX DCT VUDAV UN857 NELOX UZ53 UMRUD UN741 PAPIX PAPIX6B |
| Aircraft | B738/M-SDE2E3FGHIRWXY/LB1 |
Departure
| Time | 2026-04-28 22:54 |
|---|---|
| Airport | Santos Dumont Airport (SBRJ) |
Arrival
| Time | 2026-04-29 01:51 |
|---|---|
| Airport | Ezeiza International Airport - Ministro Pistarini (SAEZ) |
| Time | Latitude | Longitude | Altitude | Speed | Heading |
|---|---|---|---|---|---|
| 2026-04-28 22:24 | -22.91092 | -43.16594 | 27 ft | 0 kts | 266° |
| 2026-04-28 22:43 | -22.91091 | -43.16579 | 26 ft | 2 kts | 266° |
| 2026-04-28 22:43 | -22.91090 | -43.16563 | 26 ft | 2 kts | 269° |
| 2026-04-28 22:43 | -22.91094 | -43.16547 | 26 ft | 2 kts | 304° |
| 2026-04-28 22:43 | -22.91104 | -43.16536 | 25 ft | 2 kts | 331° |
| 2026-04-28 22:44 | -22.91112 | -43.16532 | 25 ft | 1 kts | 347° |
| 2026-04-28 22:44 | -22.91118 | -43.16531 | 25 ft | 0 kts | 347° |
| 2026-04-28 22:46 | -22.91117 | -43.16531 | 25 ft | 0 kts | 347° |
| 2026-04-28 22:47 | -22.91097 | -43.16536 | 25 ft | 6 kts | 346° |
| 2026-04-28 22:47 | -22.91047 | -43.16547 | 26 ft | 7 kts | 353° |
| 2026-04-28 22:47 | -22.91002 | -43.16551 | 26 ft | 5 kts | 358° |
| 2026-04-28 22:47 | -22.90961 | -43.16552 | 25 ft | 6 kts | 356° |
| 2026-04-28 22:48 | -22.90914 | -43.16556 | 26 ft | 6 kts | 355° |
| 2026-04-28 22:48 | -22.90864 | -43.16560 | 26 ft | 7 kts | 356° |
| 2026-04-28 22:48 | -22.90808 | -43.16557 | 26 ft | 8 kts | 9° |
| 2026-04-28 22:48 | -22.90745 | -43.16553 | 25 ft | 9 kts | 356° |
| 2026-04-28 22:49 | -22.90677 | -43.16557 | 25 ft | 10 kts | 357° |
| 2026-04-28 22:49 | -22.90622 | -43.16560 | 26 ft | 3 kts | 357° |
| 2026-04-28 22:49 | -22.90596 | -43.16560 | 26 ft | 4 kts | 358° |
| 2026-04-28 22:49 | -22.90542 | -43.16565 | 26 ft | 8 kts | 355° |
| 2026-04-28 22:50 | -22.90497 | -43.16540 | 25 ft | 7 kts | 60° |
| 2026-04-28 22:50 | -22.90490 | -43.16507 | 25 ft | 0 kts | 85° |
| 2026-04-28 22:51 | -22.90489 | -43.16488 | 25 ft | 5 kts | 85° |
| 2026-04-28 22:51 | -22.90484 | -43.16424 | 24 ft | 9 kts | 79° |
| 2026-04-28 22:52 | -22.90462 | -43.16357 | 22 ft | 5 kts | 75° |
| 2026-04-28 22:52 | -22.90481 | -43.16330 | 21 ft | 5 kts | 165° |
| 2026-04-28 22:52 | -22.90491 | -43.16328 | 21 ft | 0 kts | 174° |
| 2026-04-28 22:54 | -22.90637 | -43.16318 | 21 ft | 57 kts | 176° |
| 2026-04-28 22:54 | -22.91283 | -43.16275 | 23 ft | 125 kts | 176° |
| 2026-04-28 22:54 | -22.92309 | -43.16200 | 193 ft | 159 kts | 174° |
| 2026-04-28 22:54 | -22.93347 | -43.15861 | 839 ft | 157 kts | 148° |
| 2026-04-28 22:55 | -22.94164 | -43.15047 | 1303 ft | 172 kts | 127° |
| 2026-04-28 22:55 | -22.94885 | -43.13947 | 1764 ft | 185 kts | 123° |
| 2026-04-28 22:55 | -22.95687 | -43.12824 | 2064 ft | 196 kts | 132° |
| 2026-04-28 22:55 | -22.96777 | -43.11808 | 2259 ft | 211 kts | 144° |
| 2026-04-28 22:56 | -22.98019 | -43.10887 | 2501 ft | 225 kts | 144° |
| 2026-04-28 22:56 | -22.99467 | -43.10145 | 2781 ft | 239 kts | 169° |
| 2026-04-28 22:56 | -23.01147 | -43.10309 | 3144 ft | 253 kts | 201° |
| 2026-04-28 22:56 | -23.02696 | -43.11381 | 3659 ft | 270 kts | 220° |
| 2026-04-28 22:57 | -23.04126 | -43.12724 | 4418 ft | 276 kts | 221° |
| 2026-04-28 22:57 | -23.05586 | -43.14086 | 5245 ft | 280 kts | 221° |
| 2026-04-28 22:57 | -23.07080 | -43.15440 | 6072 ft | 284 kts | 220° |
| 2026-04-28 22:57 | -23.08609 | -43.16783 | 6874 ft | 287 kts | 219° |
| 2026-04-28 22:58 | -23.10173 | -43.18134 | 7697 ft | 289 kts | 220° |
| 2026-04-28 22:58 | -23.11743 | -43.19490 | 8478 ft | 292 kts | 220° |
| 2026-04-28 22:58 | -23.13330 | -43.20864 | 9221 ft | 296 kts | 220° |
| 2026-04-28 22:58 | -23.14956 | -43.22276 | 9977 ft | 299 kts | 220° |
| 2026-04-28 22:59 | -23.16586 | -43.23694 | 10574 ft | 307 kts | 220° |
| 2026-04-28 22:59 | -23.18300 | -43.25189 | 10969 ft | 323 kts | 220° |
| 2026-04-28 22:59 | -23.20071 | -43.26734 | 11355 ft | 338 kts | 220° |
| 2026-04-28 22:59 | -23.21969 | -43.28389 | 11732 ft | 354 kts | 220° |
| 2026-04-28 23:00 | -23.23940 | -43.30107 | 12086 ft | 370 kts | 220° |
| 2026-04-28 23:00 | -23.25960 | -43.31868 | 12559 ft | 378 kts | 220° |
| 2026-04-28 23:00 | -23.28035 | -43.33673 | 13148 ft | 384 kts | 220° |
| 2026-04-28 23:00 | -23.30116 | -43.35484 | 13819 ft | 386 kts | 220° |
| 2026-04-28 23:01 | -23.32231 | -43.37327 | 14430 ft | 390 kts | 221° |
| 2026-04-28 23:01 | -23.34342 | -43.39166 | 15035 ft | 393 kts | 221° |
| 2026-04-28 23:01 | -23.36502 | -43.41031 | 15624 ft | 396 kts | 221° |
| 2026-04-28 23:01 | -23.38659 | -43.42878 | 16204 ft | 399 kts | 221° |
| 2026-04-28 23:02 | -23.40840 | -43.44740 | 16729 ft | 403 kts | 221° |
| 2026-04-28 23:02 | -23.43051 | -43.46627 | 17279 ft | 406 kts | 221° |
| 2026-04-28 23:02 | -23.45282 | -43.48535 | 17816 ft | 409 kts | 221° |
| 2026-04-28 23:02 | -23.47519 | -43.50452 | 18311 ft | 413 kts | 221° |
| 2026-04-28 23:03 | -23.49789 | -43.52398 | 18855 ft | 415 kts | 222° |
| 2026-04-28 23:03 | -23.52067 | -43.54353 | 19360 ft | 418 kts | 222° |
| 2026-04-28 23:03 | -23.54362 | -43.56325 | 19840 ft | 422 kts | 222° |
| 2026-04-28 23:03 | -23.56680 | -43.58317 | 20363 ft | 424 kts | 222° |
| 2026-04-28 23:04 | -23.59012 | -43.60320 | 20863 ft | 427 kts | 222° |
| 2026-04-28 23:04 | -23.63643 | -43.64368 | 21816 ft | 430 kts | 225° |
| 2026-04-28 23:04 | -23.65857 | -43.66556 | 22292 ft | 430 kts | 229° |
| 2026-04-28 23:05 | -23.68018 | -43.68840 | 22775 ft | 432 kts | 230° |
| 2026-04-28 23:05 | -23.70136 | -43.71149 | 23213 ft | 434 kts | 230° |
| 2026-04-28 23:05 | -23.72285 | -43.73512 | 23640 ft | 437 kts | 230° |
| 2026-04-28 23:05 | -23.74423 | -43.75861 | 24105 ft | 439 kts | 230° |
| 2026-04-28 23:06 | -23.76580 | -43.78224 | 24484 ft | 443 kts | 230° |
| 2026-04-28 23:06 | -23.78768 | -43.80609 | 24946 ft | 444 kts | 230° |
| 2026-04-28 23:06 | -23.80973 | -43.83003 | 25347 ft | 447 kts | 230° |
| 2026-04-28 23:06 | -23.83175 | -43.85387 | 25752 ft | 450 kts | 230° |
| 2026-04-28 23:07 | -23.85408 | -43.87803 | 26130 ft | 453 kts | 230° |
| 2026-04-28 23:07 | -23.87651 | -43.90226 | 26537 ft | 455 kts | 230° |
| 2026-04-28 23:07 | -23.89930 | -43.92687 | 26923 ft | 457 kts | 230° |
| 2026-04-28 23:07 | -23.92178 | -43.95115 | 27249 ft | 460 kts | 230° |
| 2026-04-28 23:08 | -23.94459 | -43.97578 | 27677 ft | 461 kts | 230° |
| 2026-04-28 23:08 | -23.96761 | -44.00065 | 28028 ft | 463 kts | 230° |
| 2026-04-28 23:08 | -23.99036 | -44.02522 | 28346 ft | 466 kts | 230° |
| 2026-04-28 23:08 | -24.01354 | -44.05027 | 28788 ft | 465 kts | 230° |
| 2026-04-28 23:09 | -24.03633 | -44.07487 | 29386 ft | 461 kts | 230° |
| 2026-04-28 23:09 | -24.05929 | -44.09966 | 29888 ft | 459 kts | 230° |
| 2026-04-28 23:09 | -24.08190 | -44.12408 | 30399 ft | 456 kts | 230° |
| 2026-04-28 23:09 | -24.10420 | -44.14819 | 30875 ft | 454 kts | 230° |
| 2026-04-28 23:10 | -24.12683 | -44.17269 | 31331 ft | 452 kts | 230° |
| 2026-04-28 23:10 | -24.14903 | -44.19674 | 31718 ft | 451 kts | 230° |
| 2026-04-28 23:10 | -24.17151 | -44.22111 | 32198 ft | 448 kts | 231° |
| 2026-04-28 23:10 | -24.19355 | -44.24499 | 32599 ft | 446 kts | 231° |
| 2026-04-28 23:11 | -24.21539 | -44.26870 | 32860 ft | 447 kts | 231° |
| 2026-04-28 23:11 | -24.23759 | -44.29282 | 33243 ft | 445 kts | 231° |
| 2026-04-28 23:11 | -24.25934 | -44.31643 | 33684 ft | 442 kts | 231° |
| 2026-04-28 23:11 | -24.28135 | -44.34032 | 34195 ft | 438 kts | 231° |
| 2026-04-28 23:12 | -24.30292 | -44.36375 | 34705 ft | 433 kts | 231° |
| 2026-04-28 23:12 | -24.32433 | -44.38704 | 35036 ft | 432 kts | 231° |
| 2026-04-28 23:12 | -24.34579 | -44.41045 | 35367 ft | 431 kts | 231° |
| 2026-04-28 23:12 | -24.36702 | -44.43362 | 35659 ft | 430 kts | 231° |
| 2026-04-28 23:13 | -24.38820 | -44.45673 | 35967 ft | 429 kts | 231° |
| 2026-04-28 23:13 | -24.40915 | -44.47960 | 36277 ft | 427 kts | 231° |
| 2026-04-28 23:13 | -24.43022 | -44.50258 | 36563 ft | 426 kts | 231° |
| 2026-04-28 23:13 | -24.45104 | -44.52532 | 36729 ft | 427 kts | 231° |
| 2026-04-28 23:14 | -24.47224 | -44.54851 | 36903 ft | 427 kts | 231° |
| 2026-04-28 23:14 | -24.49312 | -44.57132 | 37127 ft | 426 kts | 231° |
| 2026-04-28 23:14 | -24.51411 | -44.59440 | 37408 ft | 424 kts | 231° |
| 2026-04-28 23:14 | -24.53474 | -44.61731 | 37676 ft | 421 kts | 232° |
| 2026-04-28 23:15 | -24.55514 | -44.64013 | 37869 ft | 421 kts | 232° |
| 2026-04-28 23:15 | -24.57556 | -44.66305 | 38024 ft | 420 kts | 232° |
| 2026-04-28 23:15 | -24.61648 | -44.70898 | 38049 ft | 420 kts | 232° |
| 2026-04-28 23:16 | -24.65733 | -44.75476 | 38049 ft | 417 kts | 232° |
| 2026-04-28 23:16 | -24.69782 | -44.80016 | 38048 ft | 418 kts | 232° |
| 2026-04-28 23:17 | -24.73861 | -44.84595 | 38049 ft | 419 kts | 232° |
| 2026-04-28 23:17 | -24.77924 | -44.89159 | 38048 ft | 418 kts | 232° |
| 2026-04-28 23:18 | -24.81982 | -44.93718 | 38050 ft | 417 kts | 232° |
| 2026-04-28 23:18 | -24.86035 | -44.98276 | 38049 ft | 416 kts | 232° |
| 2026-04-28 23:19 | -24.90086 | -45.02839 | 38049 ft | 417 kts | 233° |
| 2026-04-28 23:19 | -24.94142 | -45.07411 | 38050 ft | 416 kts | 233° |
| 2026-04-28 23:20 | -24.98171 | -45.11956 | 38050 ft | 416 kts | 233° |
| 2026-04-28 23:20 | -25.02219 | -45.16530 | 38050 ft | 417 kts | 233° |
| 2026-04-28 23:21 | -25.06237 | -45.21075 | 38050 ft | 417 kts | 233° |
| 2026-04-28 23:21 | -25.10286 | -45.25653 | 38052 ft | 416 kts | 233° |
| 2026-04-28 23:22 | -25.14313 | -45.30213 | 38051 ft | 415 kts | 233° |
| 2026-04-28 23:22 | -25.18328 | -45.34767 | 38054 ft | 415 kts | 233° |
| 2026-04-28 23:23 | -25.22370 | -45.39358 | 38056 ft | 415 kts | 233° |
| 2026-04-28 23:23 | -25.26377 | -45.43911 | 38056 ft | 416 kts | 233° |
| 2026-04-28 23:24 | -25.30405 | -45.48491 | 38058 ft | 415 kts | 233° |
| 2026-04-28 23:24 | -25.34413 | -45.53050 | 38058 ft | 413 kts | 233° |
| 2026-04-28 23:25 | -25.38409 | -45.57607 | 38059 ft | 414 kts | 233° |
| 2026-04-28 23:25 | -25.42426 | -45.62191 | 38058 ft | 415 kts | 233° |
| 2026-04-28 23:26 | -25.46429 | -45.66762 | 38059 ft | 415 kts | 234° |
| 2026-04-28 23:26 | -25.50444 | -45.71347 | 38059 ft | 414 kts | 234° |
| 2026-04-28 23:27 | -25.54449 | -45.75930 | 38063 ft | 414 kts | 234° |
| 2026-04-28 23:27 | -25.58434 | -45.80491 | 38063 ft | 411 kts | 234° |
| 2026-04-28 23:28 | -25.62408 | -45.85049 | 38061 ft | 412 kts | 234° |
| 2026-04-28 23:28 | -25.66377 | -45.89609 | 38063 ft | 414 kts | 234° |
| 2026-04-28 23:29 | -25.70377 | -45.94205 | 38064 ft | 411 kts | 234° |
| 2026-04-28 23:29 | -25.74325 | -45.98745 | 38065 ft | 411 kts | 234° |
| 2026-04-28 23:30 | -25.78310 | -46.03341 | 38064 ft | 413 kts | 234° |
| 2026-04-28 23:30 | -25.82282 | -46.07917 | 38067 ft | 410 kts | 234° |
| 2026-04-28 23:31 | -25.86223 | -46.12461 | 38065 ft | 409 kts | 235° |
| 2026-04-28 23:31 | -25.90176 | -46.17030 | 38067 ft | 410 kts | 235° |
| 2026-04-28 23:32 | -25.94105 | -46.21571 | 38070 ft | 409 kts | 235° |
| 2026-04-28 23:32 | -25.98057 | -46.26148 | 38068 ft | 409 kts | 235° |
| 2026-04-28 23:33 | -26.01977 | -46.30693 | 38071 ft | 409 kts | 235° |
| 2026-04-28 23:33 | -26.05913 | -46.35262 | 38072 ft | 409 kts | 235° |
| 2026-04-28 23:34 | -26.09851 | -46.39835 | 38073 ft | 408 kts | 235° |
| 2026-04-28 23:34 | -26.13750 | -46.44364 | 38079 ft | 407 kts | 235° |
| 2026-04-28 23:35 | -26.17666 | -46.48925 | 38076 ft | 409 kts | 235° |
| 2026-04-28 23:35 | -26.21586 | -46.53490 | 38076 ft | 407 kts | 236° |
| 2026-04-28 23:36 | -26.25516 | -46.58074 | 38075 ft | 408 kts | 235° |
| 2026-04-28 23:36 | -26.29420 | -46.62632 | 38078 ft | 407 kts | 235° |
| 2026-04-28 23:37 | -26.33333 | -46.67204 | 38078 ft | 407 kts | 236° |
| 2026-04-28 23:37 | -26.37228 | -46.71759 | 38079 ft | 405 kts | 236° |
| 2026-04-28 23:38 | -26.41102 | -46.76294 | 38079 ft | 403 kts | 236° |
| 2026-04-28 23:38 | -26.44949 | -46.80808 | 38079 ft | 405 kts | 236° |
| 2026-04-28 23:39 | -26.48830 | -46.85366 | 38078 ft | 405 kts | 236° |
| 2026-04-28 23:39 | -26.52728 | -46.89942 | 38078 ft | 404 kts | 236° |
| 2026-04-28 23:40 | -26.56581 | -46.94469 | 38081 ft | 403 kts | 236° |
| 2026-04-28 23:40 | -26.60420 | -46.98992 | 38079 ft | 404 kts | 236° |
| 2026-04-28 23:41 | -26.64288 | -47.03570 | 38083 ft | 404 kts | 236° |
| 2026-04-28 23:41 | -26.68124 | -47.08121 | 38087 ft | 405 kts | 237° |
| 2026-04-28 23:42 | -26.71982 | -47.12703 | 38092 ft | 402 kts | 236° |
| 2026-04-28 23:42 | -26.75818 | -47.17266 | 38099 ft | 402 kts | 237° |
| 2026-04-28 23:43 | -26.79644 | -47.21835 | 38104 ft | 403 kts | 237° |
| 2026-04-28 23:43 | -26.83465 | -47.26398 | 38106 ft | 402 kts | 237° |
| 2026-04-28 23:44 | -26.87274 | -47.30951 | 38110 ft | 401 kts | 237° |
| 2026-04-28 23:44 | -26.91074 | -47.35501 | 38107 ft | 401 kts | 237° |
| 2026-04-28 23:45 | -26.94885 | -47.40068 | 38112 ft | 400 kts | 237° |
| 2026-04-28 23:45 | -26.98657 | -47.44591 | 38109 ft | 400 kts | 237° |
| 2026-04-28 23:46 | -27.02453 | -47.49155 | 38113 ft | 401 kts | 237° |
| 2026-04-28 23:46 | -27.06236 | -47.53708 | 38113 ft | 401 kts | 237° |
| 2026-04-28 23:47 | -27.10015 | -47.58250 | 38110 ft | 398 kts | 237° |
| 2026-04-28 23:47 | -27.13801 | -47.62816 | 38107 ft | 399 kts | 237° |
| 2026-04-28 23:48 | -27.17576 | -47.67370 | 38108 ft | 400 kts | 237° |
| 2026-04-28 23:48 | -27.21372 | -47.71957 | 38112 ft | 400 kts | 238° |
| 2026-04-28 23:49 | -27.25130 | -47.76497 | 38109 ft | 398 kts | 238° |
| 2026-04-28 23:49 | -27.28903 | -47.81059 | 38107 ft | 398 kts | 238° |
| 2026-04-28 23:50 | -27.32660 | -47.85614 | 38104 ft | 399 kts | 238° |
| 2026-04-28 23:50 | -27.36420 | -47.90170 | 38100 ft | 397 kts | 238° |
| 2026-04-28 23:51 | -27.40156 | -47.94711 | 38106 ft | 397 kts | 238° |
| 2026-04-28 23:51 | -27.43881 | -47.99266 | 38102 ft | 395 kts | 239° |
| 2026-04-28 23:52 | -27.47611 | -48.03852 | 38100 ft | 397 kts | 238° |
| 2026-04-28 23:52 | -27.51327 | -48.08419 | 38101 ft | 396 kts | 238° |
| 2026-04-28 23:53 | -27.55033 | -48.12979 | 38103 ft | 395 kts | 238° |
| 2026-04-28 23:53 | -27.58726 | -48.17522 | 38100 ft | 394 kts | 238° |
| 2026-04-28 23:54 | -27.62429 | -48.22087 | 38100 ft | 394 kts | 238° |
| 2026-04-28 23:54 | -27.66112 | -48.26633 | 38103 ft | 396 kts | 239° |
| 2026-04-28 23:55 | -27.69806 | -48.31192 | 38101 ft | 394 kts | 239° |
| 2026-04-28 23:55 | -27.73501 | -48.35764 | 38100 ft | 394 kts | 239° |
| 2026-04-28 23:56 | -27.77183 | -48.40316 | 38101 ft | 394 kts | 239° |
| 2026-04-28 23:56 | -27.80867 | -48.44876 | 38101 ft | 391 kts | 239° |
| 2026-04-28 23:57 | -27.84518 | -48.49404 | 38103 ft | 391 kts | 239° |
| 2026-04-28 23:57 | -27.88185 | -48.53966 | 38104 ft | 392 kts | 239° |
| 2026-04-28 23:58 | -27.91831 | -48.58494 | 38107 ft | 389 kts | 239° |
| 2026-04-28 23:58 | -27.95481 | -48.63031 | 38112 ft | 390 kts | 239° |
| 2026-04-28 23:59 | -27.99130 | -48.67583 | 38113 ft | 391 kts | 240° |
| 2026-04-28 23:59 | -28.02775 | -48.72122 | 38115 ft | 388 kts | 240° |
| 2026-04-29 00:00 | -28.06395 | -48.76642 | 38118 ft | 389 kts | 240° |
| 2026-04-29 00:00 | -28.10007 | -48.81156 | 38117 ft | 388 kts | 240° |
| 2026-04-29 00:01 | -28.13609 | -48.85653 | 38115 ft | 384 kts | 241° |
| 2026-04-29 00:01 | -28.17195 | -48.90149 | 38116 ft | 386 kts | 240° |
| 2026-04-29 00:02 | -28.20783 | -48.94645 | 38115 ft | 384 kts | 240° |
| 2026-04-29 00:02 | -28.24368 | -48.99150 | 38112 ft | 385 kts | 240° |
| 2026-04-29 00:03 | -28.27956 | -49.03658 | 38113 ft | 386 kts | 240° |
| 2026-04-29 00:03 | -28.31574 | -49.08168 | 38113 ft | 385 kts | 240° |
| 2026-04-29 00:04 | -28.35185 | -49.12634 | 38119 ft | 384 kts | 240° |
| 2026-04-29 00:04 | -28.38780 | -49.17089 | 38119 ft | 385 kts | 240° |
| 2026-04-29 00:05 | -28.42375 | -49.21555 | 38120 ft | 383 kts | 241° |
| 2026-04-29 00:05 | -28.45990 | -49.26054 | 38122 ft | 383 kts | 241° |
| 2026-04-29 00:06 | -28.49557 | -49.30490 | 38122 ft | 382 kts | 241° |
| 2026-04-29 00:06 | -28.53129 | -49.34948 | 38123 ft | 382 kts | 241° |
| 2026-04-29 00:07 | -28.56718 | -49.39435 | 38117 ft | 382 kts | 241° |
| 2026-04-29 00:07 | -28.60289 | -49.43899 | 38106 ft | 381 kts | 241° |
| 2026-04-29 00:08 | -28.63843 | -49.48356 | 38100 ft | 382 kts | 241° |
| 2026-04-29 00:08 | -28.67437 | -49.52859 | 38101 ft | 382 kts | 242° |
| 2026-04-29 00:09 | -28.71010 | -49.57340 | 38101 ft | 381 kts | 241° |
| 2026-04-29 00:09 | -28.74577 | -49.61814 | 38103 ft | 380 kts | 242° |
| 2026-04-29 00:10 | -28.78121 | -49.66269 | 38104 ft | 378 kts | 242° |
| 2026-04-29 00:10 | -28.81634 | -49.70688 | 38106 ft | 379 kts | 242° |
| 2026-04-29 00:11 | -28.85166 | -49.75136 | 38106 ft | 375 kts | 242° |
| 2026-04-29 00:12 | -28.90402 | -49.81747 | 38108 ft | 378 kts | 242° |
| 2026-04-29 00:12 | -28.94008 | -49.86133 | 38103 ft | 380 kts | 240° |
| 2026-04-29 00:13 | -28.97675 | -49.90468 | 38108 ft | 379 kts | 240° |
| 2026-04-29 00:13 | -29.01328 | -49.94799 | 38107 ft | 381 kts | 240° |
| 2026-04-29 00:14 | -29.04976 | -49.99150 | 38106 ft | 379 kts | 240° |
| 2026-04-29 00:14 | -29.08630 | -50.03522 | 38106 ft | 379 kts | 240° |
| 2026-04-29 00:15 | -29.12243 | -50.07855 | 38103 ft | 380 kts | 241° |
| 2026-04-29 00:15 | -29.15888 | -50.12241 | 38104 ft | 381 kts | 240° |
| 2026-04-29 00:16 | -29.19538 | -50.16629 | 38101 ft | 382 kts | 241° |
| 2026-04-29 00:16 | -29.23186 | -50.21008 | 38106 ft | 378 kts | 241° |
| 2026-04-29 00:17 | -29.26808 | -50.25374 | 38106 ft | 379 kts | 241° |
| 2026-04-29 00:17 | -29.30462 | -50.29786 | 38108 ft | 382 kts | 241° |
| 2026-04-29 00:18 | -29.34082 | -50.34152 | 38101 ft | 379 kts | 241° |
| 2026-04-29 00:18 | -29.37713 | -50.38544 | 38104 ft | 379 kts | 241° |
| 2026-04-29 00:19 | -29.41326 | -50.42923 | 38107 ft | 380 kts | 242° |
| 2026-04-29 00:19 | -29.44963 | -50.47331 | 38107 ft | 381 kts | 241° |
| 2026-04-29 00:20 | -29.48588 | -50.51720 | 38111 ft | 381 kts | 241° |
| 2026-04-29 00:20 | -29.52232 | -50.56138 | 38096 ft | 381 kts | 241° |
| 2026-04-29 00:21 | -29.55813 | -50.60575 | 38086 ft | 377 kts | 242° |
| 2026-04-29 00:21 | -29.59339 | -50.65075 | 38086 ft | 378 kts | 243° |
| 2026-04-29 00:22 | -29.62834 | -50.69534 | 38078 ft | 375 kts | 243° |
| 2026-04-29 00:22 | -29.66343 | -50.74012 | 38077 ft | 378 kts | 243° |
| 2026-04-29 00:23 | -29.69877 | -50.78510 | 38081 ft | 380 kts | 242° |
| 2026-04-29 00:23 | -29.73406 | -50.82991 | 38076 ft | 378 kts | 243° |
| 2026-04-29 00:24 | -29.76919 | -50.87467 | 38075 ft | 378 kts | 243° |
| 2026-04-29 00:24 | -29.80431 | -50.91946 | 38081 ft | 379 kts | 243° |
| 2026-04-29 00:25 | -29.83947 | -50.96430 | 38074 ft | 377 kts | 243° |
| 2026-04-29 00:25 | -29.87466 | -51.00930 | 38081 ft | 379 kts | 243° |
| 2026-04-29 00:26 | -29.91005 | -51.05461 | 38074 ft | 379 kts | 243° |
| 2026-04-29 00:26 | -29.94536 | -51.09979 | 38074 ft | 377 kts | 243° |
| 2026-04-29 00:27 | -29.97971 | -51.14473 | 38084 ft | 373 kts | 246° |
| 2026-04-29 00:27 | -30.00805 | -51.19335 | 38080 ft | 359 kts | 253° |
| 2026-04-29 00:28 | -30.03093 | -51.24421 | 38077 ft | 357 kts | 256° |
| 2026-04-29 00:28 | -30.05279 | -51.29523 | 38076 ft | 357 kts | 256° |
| 2026-04-29 00:29 | -30.07485 | -51.34653 | 38075 ft | 356 kts | 256° |
| 2026-04-29 00:29 | -30.09689 | -51.39771 | 38077 ft | 355 kts | 255° |
| 2026-04-29 00:30 | -30.11871 | -51.44835 | 38073 ft | 355 kts | 256° |
| 2026-04-29 00:30 | -30.14074 | -51.49963 | 38074 ft | 358 kts | 256° |
| 2026-04-29 00:31 | -30.16283 | -51.55109 | 38068 ft | 359 kts | 255° |
| 2026-04-29 00:31 | -30.18507 | -51.60284 | 38067 ft | 357 kts | 256° |
| 2026-04-29 00:32 | -30.20701 | -51.65405 | 38066 ft | 358 kts | 256° |
| 2026-04-29 00:32 | -30.22904 | -51.70552 | 38065 ft | 358 kts | 256° |
| 2026-04-29 00:33 | -30.25114 | -51.75725 | 38067 ft | 359 kts | 255° |
| 2026-04-29 00:33 | -30.27318 | -51.80877 | 38067 ft | 358 kts | 256° |
| 2026-04-29 00:34 | -30.29529 | -51.86068 | 38063 ft | 361 kts | 256° |
| 2026-04-29 00:34 | -30.31737 | -51.91248 | 38061 ft | 359 kts | 255° |
| 2026-04-29 00:35 | -30.33943 | -51.96434 | 38062 ft | 361 kts | 256° |
| 2026-04-29 00:35 | -30.36161 | -52.01652 | 38061 ft | 361 kts | 255° |
| 2026-04-29 00:36 | -30.38368 | -52.06850 | 38064 ft | 360 kts | 255° |
| 2026-04-29 00:36 | -30.40588 | -52.12095 | 38063 ft | 363 kts | 256° |
| 2026-04-29 00:37 | -30.42786 | -52.17287 | 38060 ft | 360 kts | 256° |
| 2026-04-29 00:37 | -30.44993 | -52.22525 | 38062 ft | 360 kts | 256° |
| 2026-04-29 00:38 | -30.47193 | -52.27737 | 38061 ft | 363 kts | 256° |
| 2026-04-29 00:38 | -30.49410 | -52.32993 | 38060 ft | 363 kts | 255° |
| 2026-04-29 00:39 | -30.51623 | -52.38240 | 38063 ft | 363 kts | 255° |
| 2026-04-29 00:39 | -30.53835 | -52.43492 | 38061 ft | 361 kts | 255° |
| 2026-04-29 00:40 | -30.56027 | -52.48706 | 38062 ft | 362 kts | 255° |
| 2026-04-29 00:40 | -30.58236 | -52.53974 | 38062 ft | 364 kts | 255° |
| 2026-04-29 00:41 | -30.60440 | -52.59238 | 38062 ft | 365 kts | 255° |
| 2026-04-29 00:41 | -30.62663 | -52.64540 | 38055 ft | 365 kts | 256° |
| 2026-04-29 00:42 | -30.64870 | -52.69819 | 38063 ft | 366 kts | 255° |
| 2026-04-29 00:42 | -30.67083 | -52.75114 | 38063 ft | 365 kts | 255° |
| 2026-04-29 00:43 | -30.69293 | -52.80414 | 38056 ft | 366 kts | 256° |
| 2026-04-29 00:43 | -30.71502 | -52.85724 | 38058 ft | 368 kts | 255° |
| 2026-04-29 00:44 | -30.73735 | -52.91100 | 38058 ft | 370 kts | 256° |
| 2026-04-29 00:44 | -30.75958 | -52.96455 | 38056 ft | 367 kts | 255° |
| 2026-04-29 00:45 | -30.78176 | -53.01799 | 38063 ft | 368 kts | 255° |
| 2026-04-29 00:45 | -30.80384 | -53.07133 | 38072 ft | 369 kts | 255° |
| 2026-04-29 00:46 | -30.82607 | -53.12520 | 38074 ft | 370 kts | 255° |
| 2026-04-29 00:46 | -30.84826 | -53.17891 | 38071 ft | 369 kts | 255° |
| 2026-04-29 00:47 | -30.87037 | -53.23250 | 38076 ft | 372 kts | 255° |
| 2026-04-29 00:47 | -30.89268 | -53.28679 | 38076 ft | 373 kts | 255° |
| 2026-04-29 00:48 | -30.91503 | -53.34108 | 38078 ft | 373 kts | 255° |
| 2026-04-29 00:48 | -30.93740 | -53.39534 | 38075 ft | 373 kts | 255° |
| 2026-04-29 00:49 | -30.95980 | -53.44991 | 38074 ft | 376 kts | 255° |
| 2026-04-29 00:49 | -30.98220 | -53.50446 | 38073 ft | 374 kts | 255° |
| 2026-04-29 00:50 | -31.00466 | -53.55927 | 38072 ft | 375 kts | 254° |
| 2026-04-29 00:50 | -31.02705 | -53.61398 | 38073 ft | 375 kts | 254° |
| 2026-04-29 00:51 | -31.04942 | -53.66879 | 38072 ft | 377 kts | 255° |
| 2026-04-29 00:51 | -31.07194 | -53.72406 | 38071 ft | 376 kts | 254° |
| 2026-04-29 00:52 | -31.09440 | -53.77921 | 38071 ft | 377 kts | 254° |
| 2026-04-29 00:52 | -31.11679 | -53.83416 | 38069 ft | 376 kts | 254° |
| 2026-04-29 00:53 | -31.13915 | -53.88934 | 38069 ft | 378 kts | 253° |
| 2026-04-29 00:53 | -31.16161 | -53.94473 | 38069 ft | 377 kts | 253° |
| 2026-04-29 00:54 | -31.18398 | -53.99999 | 38068 ft | 380 kts | 254° |
| 2026-04-29 00:54 | -31.20661 | -54.05597 | 38072 ft | 382 kts | 253° |
| 2026-04-29 00:55 | -31.22924 | -54.11213 | 38065 ft | 383 kts | 253° |
| 2026-04-29 00:55 | -31.25182 | -54.16803 | 38069 ft | 381 kts | 253° |
| 2026-04-29 00:56 | -31.27438 | -54.22415 | 38066 ft | 384 kts | 253° |
| 2026-04-29 00:56 | -31.29702 | -54.28057 | 38064 ft | 382 kts | 253° |
| 2026-04-29 00:57 | -31.31950 | -54.33658 | 38064 ft | 383 kts | 253° |
| 2026-04-29 00:57 | -31.34201 | -54.39280 | 38061 ft | 384 kts | 252° |
| 2026-04-29 00:58 | -31.36465 | -54.44949 | 38067 ft | 385 kts | 252° |
| 2026-04-29 00:58 | -31.38725 | -54.50610 | 38061 ft | 384 kts | 252° |
| 2026-04-29 00:59 | -31.40970 | -54.56249 | 38059 ft | 385 kts | 252° |
| 2026-04-29 00:59 | -31.43319 | -54.61916 | 38060 ft | 390 kts | 248° |
| 2026-04-29 01:00 | -31.46580 | -54.67086 | 38060 ft | 404 kts | 235° |
| 2026-04-29 01:00 | -31.50675 | -54.71673 | 38059 ft | 410 kts | 231° |
| 2026-04-29 01:01 | -31.54956 | -54.76154 | 38059 ft | 413 kts | 231° |
| 2026-04-29 01:01 | -31.59203 | -54.80627 | 38056 ft | 411 kts | 231° |
| 2026-04-29 01:02 | -31.63409 | -54.85119 | 38051 ft | 411 kts | 231° |
| 2026-04-29 01:02 | -31.67620 | -54.89656 | 38050 ft | 410 kts | 231° |
| 2026-04-29 01:03 | -31.71823 | -54.94202 | 38047 ft | 411 kts | 231° |
| 2026-04-29 01:03 | -31.76010 | -54.98734 | 38048 ft | 410 kts | 230° |
| 2026-04-29 01:04 | -31.80202 | -55.03285 | 38052 ft | 411 kts | 230° |
| 2026-04-29 01:04 | -31.84382 | -55.07825 | 38056 ft | 412 kts | 230° |
| 2026-04-29 01:05 | -31.88609 | -55.12431 | 38051 ft | 415 kts | 230° |
| 2026-04-29 01:05 | -31.92839 | -55.17045 | 38064 ft | 415 kts | 229° |
| 2026-04-29 01:06 | -31.97080 | -55.21664 | 38043 ft | 416 kts | 229° |
| 2026-04-29 01:06 | -32.01296 | -55.26264 | 38045 ft | 414 kts | 229° |
| 2026-04-29 01:07 | -32.05513 | -55.30880 | 38045 ft | 415 kts | 229° |
| 2026-04-29 01:07 | -32.09758 | -55.35525 | 38046 ft | 418 kts | 228° |
| 2026-04-29 01:08 | -32.13993 | -55.40171 | 38047 ft | 414 kts | 228° |
| 2026-04-29 01:08 | -32.18212 | -55.44806 | 38046 ft | 417 kts | 228° |
| 2026-04-29 01:09 | -32.22438 | -55.49456 | 38047 ft | 416 kts | 227° |
| 2026-04-29 01:09 | -32.26667 | -55.54107 | 38046 ft | 415 kts | 227° |
| 2026-04-29 01:10 | -32.30886 | -55.58758 | 38043 ft | 415 kts | 227° |
| 2026-04-29 01:10 | -32.35124 | -55.63435 | 38038 ft | 416 kts | 227° |
| 2026-04-29 01:11 | -32.39334 | -55.68088 | 38036 ft | 415 kts | 227° |
| 2026-04-29 01:11 | -32.43545 | -55.72750 | 38046 ft | 415 kts | 227° |
| 2026-04-29 01:12 | -32.47772 | -55.77438 | 38038 ft | 419 kts | 227° |
| 2026-04-29 01:12 | -32.52018 | -55.82154 | 38041 ft | 417 kts | 226° |
| 2026-04-29 01:13 | -32.56228 | -55.86832 | 38040 ft | 416 kts | 226° |
| 2026-04-29 01:13 | -32.60429 | -55.91506 | 38038 ft | 416 kts | 226° |
| 2026-04-29 01:14 | -32.64653 | -55.96214 | 38035 ft | 416 kts | 226° |
| 2026-04-29 01:14 | -32.68874 | -56.00925 | 38033 ft | 417 kts | 226° |
| 2026-04-29 01:15 | -32.73084 | -56.05632 | 38028 ft | 416 kts | 225° |
| 2026-04-29 01:15 | -32.77294 | -56.10339 | 38029 ft | 417 kts | 225° |
| 2026-04-29 01:16 | -32.81489 | -56.15042 | 38030 ft | 416 kts | 225° |
| 2026-04-29 01:16 | -32.85720 | -56.19793 | 38021 ft | 418 kts | 225° |
| 2026-04-29 01:17 | -32.89902 | -56.24490 | 38028 ft | 415 kts | 224° |
| 2026-04-29 01:17 | -32.94109 | -56.29222 | 38015 ft | 416 kts | 224° |
| 2026-04-29 01:18 | -32.98303 | -56.33947 | 38012 ft | 415 kts | 224° |
| 2026-04-29 01:18 | -33.04572 | -56.41045 | 38024 ft | 416 kts | 224° |
| 2026-04-29 01:19 | -33.08768 | -56.45811 | 38017 ft | 416 kts | 224° |
| 2026-04-29 01:19 | -33.12940 | -56.50557 | 38015 ft | 416 kts | 224° |
| 2026-04-29 01:20 | -33.17110 | -56.55307 | 38007 ft | 414 kts | 223° |
| 2026-04-29 01:20 | -33.21293 | -56.60075 | 38006 ft | 416 kts | 223° |
| 2026-04-29 01:21 | -33.23385 | -56.62460 | 38156 ft | 416 kts | 223° |
| 2026-04-29 01:21 | -33.25473 | -56.64842 | 38005 ft | 414 kts | 223° |
| 2026-04-29 01:21 | -33.29620 | -56.69578 | 38006 ft | 413 kts | 223° |
| 2026-04-29 01:22 | -33.33762 | -56.74312 | 37999 ft | 415 kts | 223° |
| 2026-04-29 01:22 | -33.37932 | -56.79087 | 38004 ft | 415 kts | 223° |
| 2026-04-29 01:23 | -33.42100 | -56.83867 | 38000 ft | 414 kts | 223° |
| 2026-04-29 01:23 | -33.46219 | -56.88598 | 37995 ft | 413 kts | 223° |
| 2026-04-29 01:24 | -33.50378 | -56.93381 | 38001 ft | 414 kts | 223° |
| 2026-04-29 01:24 | -33.52426 | -56.95741 | 37845 ft | 409 kts | 223° |
| 2026-04-29 01:24 | -33.54464 | -56.98091 | 37461 ft | 403 kts | 222° |
| 2026-04-29 01:25 | -33.56468 | -57.00404 | 36954 ft | 400 kts | 221° |
| 2026-04-29 01:25 | -33.58463 | -57.02707 | 36339 ft | 399 kts | 221° |
| 2026-04-29 01:25 | -33.60458 | -57.05010 | 35689 ft | 398 kts | 221° |
| 2026-04-29 01:25 | -33.62455 | -57.07318 | 34964 ft | 399 kts | 220° |
| 2026-04-29 01:26 | -33.64436 | -57.09606 | 34238 ft | 400 kts | 220° |
| 2026-04-29 01:26 | -33.66461 | -57.11946 | 33536 ft | 400 kts | 220° |
| 2026-04-29 01:26 | -33.68429 | -57.14223 | 33030 ft | 397 kts | 220° |
| 2026-04-29 01:26 | -33.70404 | -57.16510 | 32475 ft | 394 kts | 221° |
| 2026-04-29 01:27 | -33.72373 | -57.18791 | 31919 ft | 392 kts | 221° |
| 2026-04-29 01:27 | -33.74329 | -57.21059 | 31356 ft | 390 kts | 222° |
| 2026-04-29 01:27 | -33.76268 | -57.23309 | 30795 ft | 388 kts | 222° |
| 2026-04-29 01:27 | -33.78196 | -57.25547 | 30237 ft | 387 kts | 222° |
| 2026-04-29 01:28 | -33.80140 | -57.27807 | 29663 ft | 385 kts | 223° |
| 2026-04-29 01:28 | -33.82052 | -57.30029 | 29101 ft | 384 kts | 223° |
| 2026-04-29 01:28 | -33.83957 | -57.32245 | 28535 ft | 382 kts | 223° |
| 2026-04-29 01:28 | -33.85865 | -57.34467 | 27965 ft | 380 kts | 224° |
| 2026-04-29 01:29 | -33.87749 | -57.36662 | 27415 ft | 378 kts | 223° |
| 2026-04-29 01:29 | -33.89643 | -57.38871 | 26852 ft | 376 kts | 224° |
| 2026-04-29 01:29 | -33.91492 | -57.41027 | 26299 ft | 375 kts | 224° |
| 2026-04-29 01:29 | -33.93360 | -57.43208 | 25740 ft | 373 kts | 224° |
| 2026-04-29 01:30 | -33.95216 | -57.45375 | 25190 ft | 371 kts | 224° |
| 2026-04-29 01:30 | -33.97060 | -57.47528 | 24643 ft | 369 kts | 225° |
| 2026-04-29 01:30 | -33.98880 | -57.49657 | 24115 ft | 367 kts | 225° |
| 2026-04-29 01:30 | -34.00697 | -57.51784 | 23574 ft | 365 kts | 225° |
| 2026-04-29 01:31 | -34.02502 | -57.53898 | 23033 ft | 363 kts | 225° |
| 2026-04-29 01:31 | -34.04324 | -57.56033 | 22491 ft | 361 kts | 225° |
| 2026-04-29 01:31 | -34.06105 | -57.58122 | 21960 ft | 359 kts | 225° |
| 2026-04-29 01:31 | -34.07890 | -57.60216 | 21424 ft | 357 kts | 225° |
| 2026-04-29 01:32 | -34.09654 | -57.62288 | 21003 ft | 351 kts | 225° |
| 2026-04-29 01:32 | -34.11470 | -57.64156 | 20940 ft | 340 kts | 218° |
| 2026-04-29 01:32 | -34.13429 | -57.65747 | 20379 ft | 342 kts | 214° |
| 2026-04-29 01:32 | -34.15457 | -57.67211 | 19776 ft | 344 kts | 213° |
| 2026-04-29 01:33 | -34.17531 | -57.68677 | 19278 ft | 340 kts | 214° |
| 2026-04-29 01:33 | -34.19527 | -57.70111 | 18589 ft | 337 kts | 214° |
| 2026-04-29 01:33 | -34.21530 | -57.71579 | 17847 ft | 335 kts | 215° |
| 2026-04-29 01:33 | -34.23483 | -57.73039 | 17166 ft | 332 kts | 215° |
| 2026-04-29 01:34 | -34.25430 | -57.74517 | 16610 ft | 324 kts | 216° |
| 2026-04-29 01:34 | -34.27293 | -57.75941 | 16112 ft | 317 kts | 216° |
| 2026-04-29 01:34 | -34.29131 | -57.77351 | 15633 ft | 309 kts | 216° |
| 2026-04-29 01:34 | -34.30922 | -57.78729 | 15167 ft | 303 kts | 216° |
| 2026-04-29 01:35 | -34.32724 | -57.80119 | 14729 ft | 314 kts | 216° |
| 2026-04-29 01:35 | -34.34602 | -57.81572 | 14220 ft | 324 kts | 216° |
| 2026-04-29 01:35 | -34.36475 | -57.83013 | 13730 ft | 319 kts | 216° |
| 2026-04-29 01:35 | -34.38311 | -57.84419 | 13253 ft | 310 kts | 216° |
| 2026-04-29 01:36 | -34.40128 | -57.85811 | 12789 ft | 302 kts | 216° |
| 2026-04-29 01:36 | -34.41865 | -57.87146 | 12368 ft | 296 kts | 216° |
| 2026-04-29 01:36 | -34.43598 | -57.88482 | 11883 ft | 297 kts | 216° |
| 2026-04-29 01:36 | -34.45358 | -57.89843 | 11415 ft | 297 kts | 217° |
| 2026-04-29 01:37 | -34.47087 | -57.91178 | 10969 ft | 297 kts | 216° |
| 2026-04-29 01:37 | -34.48834 | -57.92527 | 10521 ft | 296 kts | 217° |
| 2026-04-29 01:37 | -34.50553 | -57.93853 | 10238 ft | 289 kts | 216° |
| 2026-04-29 01:37 | -34.52201 | -57.95121 | 10110 ft | 276 kts | 217° |
| 2026-04-29 01:38 | -34.53789 | -57.96344 | 9947 ft | 266 kts | 217° |
| 2026-04-29 01:38 | -34.55340 | -57.97543 | 9625 ft | 265 kts | 217° |
| 2026-04-29 01:38 | -34.56903 | -57.98756 | 9262 ft | 264 kts | 217° |
| 2026-04-29 01:38 | -34.58441 | -57.99948 | 8904 ft | 262 kts | 217° |
| 2026-04-29 01:39 | -34.59957 | -58.01124 | 8566 ft | 260 kts | 217° |
| 2026-04-29 01:39 | -34.61467 | -58.02293 | 8222 ft | 256 kts | 217° |
| 2026-04-29 01:39 | -34.62941 | -58.03432 | 7893 ft | 247 kts | 217° |
| 2026-04-29 01:39 | -34.64372 | -58.04541 | 7561 ft | 239 kts | 217° |
| 2026-04-29 01:40 | -34.65744 | -58.05605 | 7251 ft | 231 kts | 217° |
| 2026-04-29 01:40 | -34.67081 | -58.06644 | 6948 ft | 225 kts | 217° |
| 2026-04-29 01:40 | -34.68369 | -58.07641 | 6664 ft | 217 kts | 218° |
| 2026-04-29 01:40 | -34.69628 | -58.08619 | 6360 ft | 211 kts | 218° |
| 2026-04-29 01:41 | -34.70847 | -58.09566 | 6085 ft | 204 kts | 218° |
| 2026-04-29 01:41 | -34.72034 | -58.10492 | 5816 ft | 201 kts | 218° |
| 2026-04-29 01:41 | -34.73210 | -58.11407 | 5544 ft | 199 kts | 218° |
| 2026-04-29 01:41 | -34.74372 | -58.12312 | 5277 ft | 198 kts | 218° |
| 2026-04-29 01:42 | -34.75529 | -58.13212 | 5012 ft | 196 kts | 218° |
| 2026-04-29 01:42 | -34.76673 | -58.14103 | 4754 ft | 194 kts | 218° |
| 2026-04-29 01:42 | -34.77782 | -58.14961 | 4608 ft | 184 kts | 219° |
| 2026-04-29 01:42 | -34.78830 | -58.15776 | 4539 ft | 178 kts | 219° |
| 2026-04-29 01:43 | -34.79880 | -58.16601 | 4474 ft | 180 kts | 219° |
| 2026-04-29 01:43 | -34.80922 | -58.17414 | 4425 ft | 178 kts | 219° |
| 2026-04-29 01:43 | -34.81980 | -58.18238 | 4368 ft | 178 kts | 219° |
| 2026-04-29 01:43 | -34.83019 | -58.19051 | 4304 ft | 179 kts | 219° |
| 2026-04-29 01:44 | -34.84063 | -58.19865 | 4252 ft | 178 kts | 219° |
| 2026-04-29 01:44 | -34.85107 | -58.20700 | 4186 ft | 178 kts | 224° |
| 2026-04-29 01:44 | -34.85888 | -58.21783 | 4094 ft | 169 kts | 252° |
| 2026-04-29 01:44 | -34.86100 | -58.23171 | 4019 ft | 166 kts | 272° |
| 2026-04-29 01:45 | -34.86081 | -58.24550 | 3891 ft | 163 kts | 273° |
| 2026-04-29 01:45 | -34.86079 | -58.25925 | 3768 ft | 161 kts | 272° |
| 2026-04-29 01:45 | -34.86087 | -58.27247 | 3664 ft | 155 kts | 273° |
| 2026-04-29 01:45 | -34.86088 | -58.28542 | 3548 ft | 151 kts | 273° |
| 2026-04-29 01:46 | -34.86085 | -58.29818 | 3446 ft | 153 kts | 274° |
| 2026-04-29 01:46 | -34.86084 | -58.31116 | 3327 ft | 152 kts | 273° |
| 2026-04-29 01:46 | -34.86037 | -58.32387 | 3248 ft | 144 kts | 281° |
| 2026-04-29 01:46 | -34.85815 | -58.33583 | 2854 ft | 148 kts | 287° |
| 2026-04-29 01:47 | -34.85575 | -58.34789 | 2369 ft | 148 kts | 286° |
| 2026-04-29 01:47 | -34.85360 | -58.35990 | 1961 ft | 142 kts | 287° |
| 2026-04-29 01:47 | -34.85161 | -58.37128 | 1863 ft | 134 kts | 287° |
| 2026-04-29 01:47 | -34.84962 | -58.38233 | 1866 ft | 136 kts | 287° |
| 2026-04-29 01:48 | -34.84764 | -58.39358 | 1864 ft | 135 kts | 287° |
| 2026-04-29 01:48 | -34.84560 | -58.40492 | 1823 ft | 136 kts | 287° |
| 2026-04-29 01:48 | -34.84366 | -58.41609 | 1520 ft | 141 kts | 286° |
| 2026-04-29 01:48 | -34.84161 | -58.42781 | 1277 ft | 139 kts | 286° |
| 2026-04-29 01:49 | -34.83972 | -58.43931 | 1114 ft | 139 kts | 286° |
| 2026-04-29 01:49 | -34.83750 | -58.45082 | 960 ft | 140 kts | 287° |
| 2026-04-29 01:49 | -34.83548 | -58.46238 | 853 ft | 140 kts | 286° |
| 2026-04-29 01:49 | -34.83323 | -58.47405 | 705 ft | 143 kts | 286° |
| 2026-04-29 01:50 | -34.83110 | -58.48590 | 569 ft | 145 kts | 285° |
| 2026-04-29 01:50 | -34.82903 | -58.49792 | 441 ft | 145 kts | 284° |
| 2026-04-29 01:50 | -34.82686 | -58.50996 | 271 ft | 147 kts | 284° |
| 2026-04-29 01:50 | -34.82475 | -58.52225 | 99 ft | 148 kts | 284° |
| 2026-04-29 01:51 | -34.82261 | -58.53419 | 71 ft | 137 kts | 283° |
| 2026-04-29 01:51 | -34.82104 | -58.54281 | 71 ft | 74 kts | 282° |
| 2026-04-29 01:51 | -34.82027 | -58.54704 | 71 ft | 37 kts | 282° |
| 2026-04-29 01:51 | -34.81976 | -58.54991 | 71 ft | 33 kts | 282° |
| 2026-04-29 01:52 | -34.81928 | -58.55219 | 71 ft | 23 kts | 298° |
| 2026-04-29 01:52 | -34.81811 | -58.55338 | 71 ft | 19 kts | 342° |
| 2026-04-29 01:52 | -34.81714 | -58.55289 | 71 ft | 15 kts | 62° |
| 2026-04-29 01:52 | -34.81717 | -58.55159 | 71 ft | 15 kts | 102° |
| 2026-04-29 01:53 | -34.81739 | -58.55037 | 71 ft | 14 kts | 102° |
| 2026-04-29 01:53 | -34.81760 | -58.54917 | 71 ft | 14 kts | 102° |
| 2026-04-29 01:53 | -34.81781 | -58.54801 | 71 ft | 13 kts | 101° |
| 2026-04-29 01:53 | -34.81791 | -58.54705 | 71 ft | 9 kts | 90° |
| 2026-04-29 01:54 | -34.81780 | -58.54628 | 71 ft | 8 kts | 73° |
| 2026-04-29 01:54 | -34.81767 | -58.54575 | 71 ft | 5 kts | 73° |
| 2026-04-29 01:54 | -34.81761 | -58.54528 | 71 ft | 5 kts | 86° |
| 2026-04-29 01:54 | -34.81760 | -58.54512 | 71 ft | 0 kts | 90° |
| 2026-04-29 01:55 | -34.81760 | -58.54511 | 71 ft | 0 kts | 91° |
| 2026-04-29 01:55 | -34.81760 | -58.54493 | 71 ft | 2 kts | 73° |
| 2026-04-29 01:55 | -34.81743 | -58.54477 | 71 ft | 3 kts | 20° |
| 2026-04-29 01:55 | -34.81712 | -58.54467 | 71 ft | 5 kts | 14° |
| 2026-04-29 01:56 | -34.81669 | -58.54455 | 71 ft | 6 kts | 12° |
| 2026-04-29 01:56 | -34.81642 | -58.54448 | 71 ft | 0 kts | 12° |